Time;durP1;ratioP1;P1;durP2;ratioP2;P2;SDS_P1;SDS_P2;PMS_P1;PMS_P2;Temp;Humidity;BMP_temperature;BMP_pressure;BME280_temperature;BME280_humidity;BME280_pressure;Samples;Min_cycle;Max_cycle;Signal;HPM_P1;HPM_P2
2022/09/13 01:53:25;;;;;;;3.72;3.35;;;;;;;;;;5028827;23;20250;-86
2022/09/13 01:55:58;;;;;;;3.80;3.45;;;;;;;;;;5022813;22;20246;-84
2022/09/13 01:58:31;;;;;;;3.50;3.20;;;;;;;;;;5007501;28;20657;-84
2022/09/13 02:01:00;;;;;;;4.68;3.65;;;;;;;;;;5024294;28;20207;-84
2022/09/13 02:03:30;;;;;;;4.60;3.60;;;;;;;;;;5008145;28;20180;-85
2022/09/13 02:05:59;;;;;;;3.60;3.30;;;;;;;;;;5007358;28;20247;-85
2022/09/13 02:08:33;;;;;;;3.80;3.40;;;;;;;;;;5008260;28;20883;-84
2022/09/13 02:11:09;;;;;;;3.85;3.55;;;;;;;;;;5007878;28;20194;-84
2022/09/13 02:13:36;;;;;;;7.05;4.03;;;;;;;;;;5023658;28;20646;-84
2022/09/13 02:16:07;;;;;;;4.47;4.10;;;;;;;;;;5007789;28;20526;-84
2022/09/13 02:18:40;;;;;;;3.90;3.60;;;;;;;;;;5007883;28;20296;-84
2022/09/13 02:21:12;;;;;;;4.03;3.73;;;;;;;;;;5007898;28;20259;-84
2022/09/13 02:23:42;;;;;;;4.17;3.77;;;;;;;;;;5007225;28;20183;-83
2022/09/13 02:26:09;;;;;;;4.43;3.65;;;;;;;;;;5009184;28;20636;-84
2022/09/13 02:28:37;;;;;;;3.80;3.50;;;;;;;;;;5007495;28;20180;-83
2022/09/13 02:31:04;;;;;;;3.85;3.55;;;;;;;;;;5023470;28;20187;-84
2022/09/13 02:33:35;;;;;;;4.30;3.90;;;;;;;;;;5023694;28;20184;-84
2022/09/13 02:36:07;;;;;;;4.10;3.80;;;;;;;;;;5023085;28;20302;-84
2022/09/13 02:39:05;;;;;;;4.10;3.70;;;;;;;;;;5007525;28;20634;-84
2022/09/13 02:41:35;;;;;;;4.18;3.40;;;;;;;;;;4980229;28;20196;-84
2022/09/13 02:44:07;;;;;;;4.07;3.67;;;;;;;;;;5008445;28;20625;-85
2022/09/13 02:46:45;;;;;;;3.70;3.33;;;;;;;;;;5023632;28;20204;-83
2022/09/13 02:49:13;;;;;;;3.58;3.28;;;;;;;;;;5008122;28;20931;-83
2022/09/13 02:51:45;;;;;;;3.97;3.30;;;;;;;;;;5023470;28;20287;-83
2022/09/13 02:54:22;;;;;;;3.60;3.30;;;;;;;;;;5008203;28;20589;-84
2022/09/13 02:57:03;;;;;;;3.60;3.30;;;;;;;;;;5023613;28;20267;-84
2022/09/13 02:59:29;;;;;;;3.60;3.20;;;;;;;;;;5007187;28;20179;-84
2022/09/13 03:02:02;;;;;;;3.55;2.90;;;;;;;;;;5007129;28;20198;-85
2022/09/13 03:04:28;;;;;;;4.13;3.22;;;;;;;;;;5008601;28;20238;-84
2022/09/13 03:06:54;;;;;;;3.20;2.97;;;;;;;;;;5007954;28;20183;-85
2022/09/13 03:09:21;;;;;;;5.55;3.30;;;;;;;;;;5008125;28;20180;-84
2022/09/13 03:11:50;;;;;;;4.00;3.38;;;;;;;;;;5008165;28;20262;-84
2022/09/13 03:14:22;;;;;;;3.35;3.05;;;;;;;;;;5006448;28;20246;-85
2022/09/13 03:17:07;;;;;;;3.78;3.35;;;;;;;;;;5023161;28;20210;-84
2022/09/13 03:19:39;;;;;;;3.60;3.30;;;;;;;;;;5007741;28;20196;-85
2022/09/13 03:22:24;;;;;;;3.80;3.50;;;;;;;;;;5021555;28;20184;-84
2022/09/13 03:25:03;;;;;;;4.07;3.60;;;;;;;;;;5021714;28;20253;-86
2022/09/13 03:27:41;;;;;;;4.55;3.63;;;;;;;;;;5006417;28;20189;-85
2022/09/13 03:30:10;;;;;;;5.40;4.03;;;;;;;;;;5007543;28;20183;-84
2022/09/13 03:32:39;;;;;;;3.95;3.55;;;;;;;;;;5006289;28;20558;-85
2022/09/13 03:35:23;;;;;;;4.30;3.90;;;;;;;;;;5022129;28;20584;-84
2022/09/13 03:38:03;;;;;;;5.25;4.47;;;;;;;;;;5005904;28;20194;-84
2022/09/13 03:40:32;;;;;;;4.90;3.95;;;;;;;;;;5007262;28;20554;-84
2022/09/13 03:43:03;;;;;;;4.68;4.28;;;;;;;;;;5005654;28;20215;-84
2022/09/13 03:45:32;;;;;;;5.20;4.75;;;;;;;;;;5005627;28;20215;-84
2022/09/13 03:47:58;;;;;;;4.55;4.15;;;;;;;;;;5007766;28;20558;-85
2022/09/13 03:50:25;;;;;;;4.50;4.10;;;;;;;;;;5006788;28;20237;-85
2022/09/13 03:52:55;;;;;;;4.13;3.72;;;;;;;;;;5021807;28;20282;-84
2022/09/13 03:55:21;;;;;;;5.38;3.78;;;;;;;;;;5006043;28;20223;-84
2022/09/13 03:57:47;;;;;;;6.20;4.63;;;;;;;;;;5006951;28;20183;-85
2022/09/13 04:00:14;;;;;;;6.07;4.72;;;;;;;;;;5007198;28;20613;-84
2022/09/13 04:02:40;;;;;;;4.47;4.07;;;;;;;;;;5006883;28;20685;-84
2022/09/13 04:05:06;;;;;;;5.15;4.65;;;;;;;;;;5008101;28;20242;-84
2022/09/13 04:07:32;;;;;;;5.00;4.60;;;;;;;;;;5007575;28;20820;-85
2022/09/13 04:09:58;;;;;;;4.53;4.10;;;;;;;;;;5024896;28;21219;-86
2022/09/13 04:12:25;;;;;;;6.60;4.65;;;;;;;;;;5013134;28;20176;-84
2022/09/13 04:14:51;;;;;;;4.70;4.30;;;;;;;;;;5007068;28;20227;-85
2022/09/13 04:17:17;;;;;;;6.10;4.85;;;;;;;;;;5007895;28;20206;-85
2022/09/13 04:19:44;;;;;;;5.53;4.80;;;;;;;;;;5009482;28;20251;-84
2022/09/13 04:22:10;;;;;;;5.70;5.20;;;;;;;;;;5007837;28;21119;-85
2022/09/13 04:24:37;;;;;;;7.38;5.63;;;;;;;;;;5007187;28;20211;-84
2022/09/13 04:27:03;;;;;;;6.00;5.40;;;;;;;;;;5006791;28;20207;-86
2022/09/13 04:29:30;;;;;;;5.97;5.07;;;;;;;;;;5023950;28;20263;-86
2022/09/13 04:31:56;;;;;;;6.95;6.32;;;;;;;;;;5007760;28;20404;-84
2022/09/13 04:34:23;;;;;;;6.60;6.00;;;;;;;;;;5007972;28;20179;-85
2022/09/13 04:36:49;;;;;;;6.70;6.03;;;;;;;;;;5007367;28;20191;-84
2022/09/13 04:39:16;;;;;;;6.40;5.70;;;;;;;;;;5023301;28;20220;-84
2022/09/13 04:41:43;;;;;;;6.93;6.22;;;;;;;;;;5007828;28;20230;-85
2022/09/13 04:44:09;;;;;;;6.20;5.55;;;;;;;;;;5016827;28;20200;-85
2022/09/13 04:46:35;;;;;;;6.55;5.95;;;;;;;;;;5020250;28;20199;-86
2022/09/13 04:49:02;;;;;;;6.90;6.20;;;;;;;;;;5021223;28;20219;-87
2022/09/13 04:51:27;;;;;;;5.55;5.13;;;;;;;;;;5017428;28;20566;-86
2022/09/13 04:53:54;;;;;;;7.55;6.28;;;;;;;;;;5016651;28;20187;-87
2022/09/13 04:56:22;;;;;;;6.85;6.25;;;;;;;;;;5017639;28;20215;-86
2022/09/13 04:58:48;;;;;;;8.80;6.88;;;;;;;;;;5034071;28;20183;-87
2022/09/13 05:01:14;;;;;;;6.68;6.07;;;;;;;;;;5021120;28;20191;-85
2022/09/13 05:03:40;;;;;;;7.10;6.00;;;;;;;;;;5022579;28;20675;-86
2022/09/13 05:06:07;;;;;;;6.75;6.15;;;;;;;;;;5022321;28;20257;-86
2022/09/13 05:08:33;;;;;;;6.93;6.32;;;;;;;;;;5023428;28;20175;-87
2022/09/13 05:10:59;;;;;;;6.95;6.25;;;;;;;;;;5038788;28;20210;-86
2022/09/13 05:13:26;;;;;;;6.93;6.32;;;;;;;;;;5023491;28;20186;-86
2022/09/13 05:15:55;;;;;;;7.70;6.68;;;;;;;;;;5022293;28;20204;-86
2022/09/13 05:18:21;;;;;;;7.72;6.93;;;;;;;;;;5022385;28;20562;-85
2022/09/13 05:20:48;;;;;;;6.90;6.28;;;;;;;;;;5020063;28;20191;-87
2022/09/13 05:23:14;;;;;;;7.65;6.93;;;;;;;;;;5015175;28;20188;-86
2022/09/13 05:25:40;;;;;;;6.85;6.25;;;;;;;;;;5017091;28;20299;-85
2022/09/13 05:28:06;;;;;;;7.03;6.32;;;;;;;;;;5015476;28;21058;-85
2022/09/13 05:30:32;;;;;;;6.45;5.85;;;;;;;;;;5015695;28;20725;-86
2022/09/13 05:32:58;;;;;;;6.30;5.80;;;;;;;;;;5030962;28;21060;-86
2022/09/13 05:35:24;;;;;;;6.88;6.28;;;;;;;;;;5014630;28;20206;-86
2022/09/13 05:37:50;;;;;;;12.93;6.95;;;;;;;;;;5014651;28;20274;-86
2022/09/13 05:40:16;;;;;;;6.90;6.30;;;15.00;99.90;;;;;;5016331;28;20198;-84
2022/09/13 05:42:41;;;;;;;7.18;6.47;;;14.90;99.90;;;;;;5014120;28;20188;-86
2022/09/13 05:45:08;;;;;;;7.35;6.45;;;15.00;99.90;;;;;;5014080;28;20293;-86
2022/09/13 05:47:33;;;;;;;7.55;6.30;;;15.20;99.90;;;;;;5014009;28;20251;-86
2022/09/13 05:49:59;;;;;;;7.65;6.55;;;15.30;99.90;;;;;;5013481;28;20199;-86
2022/09/13 05:52:24;;;;;;;7.88;7.13;;;15.40;99.90;;;;;;5013801;28;20230;-86
2022/09/13 05:54:50;;;;;;;7.38;6.78;;;15.50;99.90;;;;;;5013526;28;20223;-86
2022/09/13 05:57:15;;;;;;;7.82;7.10;;;15.50;99.90;;;;;;5015647;28;20187;-86
2022/09/13 05:59:41;;;;;;;7.68;6.97;;;15.60;99.90;;;;;;5012996;28;20548;-87
2022/09/13 06:02:09;;;;;;;7.03;6.43;;;15.70;99.90;;;;;;5012845;28;20632;-85
2022/09/13 06:04:34;;;;;;;8.05;7.18;;;15.70;99.90;;;;;;5012626;28;20254;-85
2022/09/13 06:07:00;;;;;;;8.48;7.75;;;15.80;99.90;;;;;;5013481;28;20207;-86
2022/09/13 06:09:25;;;;;;;7.50;6.80;;;15.90;99.90;;;;;;5013634;28;20646;-86
2022/09/13 06:11:51;;;;;;;7.97;7.22;;;15.80;99.90;;;;;;5014727;28;20183;-84
2022/09/13 06:14:16;;;;;;;7.05;6.45;;;15.90;99.90;;;;;;5012599;28;20206;-85
2022/09/13 06:16:42;;;;;;;8.30;7.50;;;16.00;99.90;;;;;;5012936;28;20270;-86
2022/09/13 06:19:07;;;;;;;7.32;6.60;;;16.10;99.90;;;;;;5012647;28;20657;-85
2022/09/13 06:21:36;;;;;;;8.82;7.93;;;16.10;99.90;;;;;;5011705;28;20209;-85
2022/09/13 06:24:03;;;;;;;8.02;7.30;;;16.10;99.90;;;;;;5027403;28;20234;-86
2022/09/13 06:26:28;;;;;;;7.65;6.88;;;16.10;99.90;;;;;;5012293;28;20226;-85
2022/09/13 06:28:56;;;;;;;7.07;6.47;;;16.20;99.90;;;;;;5013229;28;20191;-85
2022/09/13 06:31:24;;;;;;;8.18;6.85;;;16.30;99.90;;;;;;5013072;28;20204;-85
2022/09/13 06:33:58;;;;;;;7.32;6.47;;;16.40;99.90;;;;;;5008991;28;20179;-84
2022/09/13 06:36:24;;;;;;;7.60;6.90;;;16.50;99.90;;;;;;5008345;28;20398;-85
2022/09/13 06:38:51;;;;;;;7.10;6.47;;;16.50;99.90;;;;;;5006856;28;20215;-84
2022/09/13 06:41:22;;;;;;;6.85;6.18;;;16.50;99.90;;;;;;5006585;28;20195;-85
2022/09/13 06:43:56;;;;;;;7.40;6.07;;;16.60;99.90;;;;;;5008147;28;20669;-85
2022/09/13 06:46:22;;;;;;;6.72;6.13;;;16.60;99.90;;;;;;5010315;28;20226;-85
2022/09/13 06:48:48;;;;;;;7.88;5.72;;;16.60;99.90;;;;;;5010668;28;20191;-86
2022/09/13 06:51:17;;;;;;;6.00;5.40;;;16.80;99.90;;;;;;5011645;28;20234;-87
2022/09/13 06:53:44;;;;;;;6.25;5.68;;;16.60;99.90;;;;;;5010884;28;20717;-87
2022/09/13 06:56:33;;;;;;;6.07;5.57;;;16.90;99.90;;;;;;5012272;28;20227;-86
2022/09/13 06:59:03;;;;;;;5.93;5.43;;;16.80;99.90;;;;;;5012554;28;20326;-87
2022/09/13 07:01:31;;;;;;;6.00;5.40;;;17.00;99.90;;;;;;5013169;28;20188;-86
2022/09/13 07:04:06;;;;;;;5.63;5.03;;;16.90;99.90;;;;;;5011462;28;20184;-87
2022/09/13 07:06:51;;;;;;;5.53;5.07;;;16.90;99.90;;;;;;5014640;28;20195;-86
2022/09/13 07:09:20;;;;;;;5.50;5.10;;;16.80;99.90;;;;;;5015172;28;20207;-88
2022/09/13 07:11:47;;;;;;;5.35;4.85;;;16.90;99.90;;;;;;5012195;28;20191;-87
2022/09/13 07:14:15;;;;;;;7.32;5.32;;;17.10;99.90;;;;;;5009165;28;20188;-86
2022/09/13 07:16:50;;;;;;;5.50;5.10;;;17.20;99.90;;;;;;5008609;28;20245;-89
2022/09/13 07:19:22;;;;;;;5.50;5.00;;;17.40;99.90;;;;;;5025448;28;20381;-88
2022/09/13 07:21:48;;;;;;;5.30;4.90;;;17.60;99.90;;;;;;5009065;28;20229;-86
2022/09/13 07:24:18;;;;;;;5.15;4.60;;;17.70;99.90;;;;;;5010133;28;20208;-87
2022/09/13 07:26:45;;;;;;;5.82;5.30;;;18.20;99.90;;;;;;5010764;28;20186;-87
2022/09/13 07:29:13;;;;;;;5.60;5.10;;;18.10;99.90;;;;;;5009340;28;20801;-87
2022/09/13 07:31:41;;;;;;;4.70;4.30;;;18.50;99.90;;;;;;5010564;28;20177;-85
2022/09/13 07:34:12;;;;;;;5.47;4.50;;;18.40;99.90;;;;;;5025150;28;20240;-86
2022/09/13 07:36:40;;;;;;;5.30;4.78;;;18.40;99.90;;;;;;5009803;28;20191;-89
2022/09/13 07:39:18;;;;;;;4.68;4.25;;;18.60;96.90;;;;;;5025223;28;20421;-85
2022/09/13 07:41:45;;;;;;;4.90;4.50;;;18.50;96.00;;;;;;5023503;28;20182;-84
2022/09/13 07:44:12;;;;;;;4.40;4.00;;;18.70;97.80;;;;;;5006930;28;20231;-84
2022/09/13 07:46:40;;;;;;;4.75;3.92;;;18.70;83.80;;;;;;5006160;28;20250;-84
2022/09/13 07:49:06;;;;;;;4.70;4.30;;;18.80;90.80;;;;;;5006145;28;20180;-86
2022/09/13 07:51:33;;;;;;;4.53;4.13;;;19.30;80.40;;;;;;5004930;28;20558;-85
2022/09/13 07:54:04;;;;;;;4.40;4.05;;;19.60;55.00;;;;;;5006014;28;20180;-85
2022/09/13 07:56:38;;;;;;;4.75;4.35;;;19.60;24.40;;;;;;5004340;28;20314;-85
2022/09/13 07:59:06;;;;;;;4.50;4.10;;;19.50;23.80;;;;;;5021424;28;20179;-85
2022/09/13 08:01:37;;;;;;;4.38;3.97;;;19.50;20.30;;;;;;5005107;28;20195;-84
2022/09/13 08:04:05;;;;;;;5.45;4.72;;;19.50;24.50;;;;;;5005396;28;20240;-84
2022/09/13 08:06:33;;;;;;;4.45;3.97;;;19.50;33.10;;;;;;5005849;28;20299;-84
2022/09/13 08:08:59;;;;;;;4.10;3.80;;;19.40;33.80;;;;;;5007310;28;20188;-84
2022/09/13 08:11:37;;;;;;;6.40;4.18;;;19.50;1.00;;;;;;5009201;28;20186;-85
2022/09/13 08:14:05;;;;;;;4.65;4.25;;;19.30;1.00;;;;;;5023877;28;20179;-85
2022/09/13 08:16:31;;;;;;;4.13;3.83;;;19.40;1.00;;;;;;5007596;28;20195;-85
2022/09/13 08:19:00;;;;;;;4.70;4.30;;;19.40;1.00;;;;;;5024014;28;20180;-83
2022/09/13 08:21:30;;;;;;;4.68;4.28;;;19.70;1.00;;;;;;5007602;28;20179;-84
2022/09/13 08:23:59;;;;;;;4.38;3.97;;;19.60;1.00;;;;;;5024048;28;20179;-86
2022/09/13 08:26:25;;;;;;;4.55;3.95;;;19.70;1.00;;;;;;5008746;28;20210;-85
2022/09/13 08:28:58;;;;;;;4.50;4.03;;;19.80;1.00;;;;;;5008111;28;20250;-86
2022/09/13 08:31:25;;;;;;;4.45;4.15;;;20.00;1.00;;;;;;5007727;28;20172;-85
2022/09/13 08:33:50;;;;;;;4.43;4.03;;;20.10;1.00;;;;;;5005428;28;20274;-85
2022/09/13 08:36:17;;;;;;;4.30;3.90;;;20.20;1.00;;;;;;5003789;28;20744;-84
2022/09/13 08:38:57;;;;;;;4.70;4.20;;;20.40;1.00;;;;;;5003184;28;20290;-85
2022/09/13 08:41:39;;;;;;;4.18;3.78;;;20.30;1.00;;;;;;5004059;28;20234;-84
2022/09/13 08:44:31;;;;;;;4.47;4.07;;;20.30;1.00;;;;;;5020378;28;20673;-84
2022/09/13 08:47:23;;;;;;;4.30;3.90;;;20.30;99.90;;;;;;5004555;28;20225;-85
2022/09/13 08:50:08;;;;;;;4.57;4.18;;;20.30;99.90;;;;;;5004526;28;20175;-84
2022/09/13 08:52:56;;;;;;;4.93;4.43;;;20.20;99.90;;;;;;5003685;28;20180;-84
2022/09/13 08:55:34;;;;;;;4.80;4.30;;;20.30;99.90;;;;;;5003186;28;20223;-84
2022/09/13 08:58:25;;;;;;;5.97;4.57;;;20.30;99.90;;;;;;5000316;28;20193;-84
2022/09/13 09:01:02;;;;;;;5.38;4.53;;;20.30;99.90;;;;;;5003223;28;20697;-85
2022/09/13 09:03:40;;;;;;;5.47;4.85;;;20.20;99.90;;;;;;5002781;28;20187;-84
2022/09/13 09:06:15;;;;;;;6.15;4.78;;;20.20;99.90;;;;;;5002785;28;20211;-85
2022/09/13 09:08:52;;;;;;;5.25;4.43;;;20.10;99.90;;;;;;5002257;28;20179;-85
2022/09/13 09:11:30;;;;;;;5.75;4.80;;;20.20;99.90;;;;;;5003908;28;20317;-84
2022/09/13 09:14:19;;;;;;;5.20;4.78;;;20.10;99.90;;;;;;5001977;28;20663;-85
2022/09/13 09:17:06;;;;;;;5.18;4.50;;;20.10;99.90;;;;;;5019130;28;20257;-85
2022/09/13 09:19:37;;;;;;;6.30;4.82;;;20.10;99.90;;;;;;5000671;28;20183;-84
2022/09/13 09:22:16;;;;;;;6.30;4.70;;;20.20;99.90;;;;;;5002154;28;20176;-85
2022/09/13 09:24:45;;;;;;;5.65;4.50;;;19.80;99.90;;;;;;5003309;28;20588;-85
2022/09/13 09:27:15;;;;;;;5.13;4.63;;;19.80;99.90;;;;;;5003957;28;20184;-85
2022/09/13 09:29:43;;;;;;;5.35;4.85;;;20.30;99.90;;;;;;5002928;28;20530;-85
2022/09/13 09:32:15;;;;;;;6.03;5.22;;;20.20;99.90;;;;;;5003046;28;20642;-85
2022/09/13 09:35:09;;;;;;;6.38;4.90;;;20.50;7.40;;;;;;5002772;28;20210;-85
2022/09/13 09:37:36;;;;;;;5.80;5.28;;;20.60;99.90;;;;;;5003849;28;20284;-86
2022/09/13 09:40:08;;;;;;;6.45;4.80;;;20.80;1.00;;;;;;5002931;28;20215;-85
2022/09/13 09:42:41;;;;;;;5.45;4.78;;;20.80;1.00;;;;;;5020972;28;20207;-84
2022/09/13 09:45:25;;;;;;;5.03;4.60;;;20.70;1.00;;;;;;5003066;28;20215;-83
2022/09/13 09:47:52;;;;;;;5.82;5.22;;;20.60;99.90;;;;;;5007226;28;20180;-85
2022/09/13 09:50:24;;;;;;;5.70;5.20;;;20.40;99.90;;;;;;5003047;28;20180;-84
2022/09/13 09:53:02;;;;;;;5.57;5.07;;;20.20;99.90;;;;;;5008160;28;20206;-86
2022/09/13 09:55:59;;;;;;;6.65;4.88;;;20.10;99.90;;;;;;5003648;28;20215;-84
2022/09/13 09:58:45;;;;;;;5.32;4.90;;;20.20;99.90;;;;;;5006787;28;20667;-86
2022/09/13 10:01:15;;;;;;;5.53;5.03;;;20.40;99.90;;;;;;5007142;28;20184;-84
2022/09/13 10:03:41;;;;;;;5.57;4.90;;;20.90;99.90;;;;;;5023425;28;20187;-85
2022/09/13 10:06:10;;;;;;;6.53;4.88;;;21.00;99.90;;;;;;5002401;28;20225;-83
2022/09/13 10:08:38;;;;;;;6.22;4.65;;;21.10;1.00;;;;;;5003393;28;20179;-85
2022/09/13 10:11:05;;;;;;;5.25;4.75;;;21.30;1.00;;;;;;5003292;28;20264;-85
2022/09/13 10:13:31;;;;;;;4.68;4.28;;;21.50;1.00;;;;;;5004289;28;20242;-85
2022/09/13 10:15:57;;;;;;;4.80;4.38;;;22.00;99.90;;;;;;5005875;28;20207;-85
2022/09/13 10:18:28;;;;;;;5.45;4.95;;;22.00;99.90;;;;;;5003017;28;20636;-86
2022/09/13 10:21:23;;;;;;;5.43;4.93;;;22.00;99.90;;;;;;5004621;28;20213;-85
2022/09/13 10:23:50;;;;;;;5.55;4.90;;;22.00;1.00;;;;;;5019917;28;20184;-85
2022/09/13 10:26:20;;;;;;;5.78;5.20;;;22.20;1.00;;;;;;5004197;28;20219;-85
2022/09/13 10:28:55;;;;;;;6.00;5.45;;;22.20;1.00;;;;;;5004136;28;20317;-85
2022/09/13 10:31:28;;;;;;;6.00;5.35;;;22.20;99.90;;;;;;5020340;28;20210;-85
2022/09/13 10:34:10;;;;;;;7.20;5.53;;;22.20;99.90;;;;;;5004333;28;20337;-85
2022/09/13 10:36:36;;;;;;;7.28;5.80;;;22.20;99.90;;;;;;5004478;28;20203;-85
2022/09/13 10:39:06;;;;;;;6.07;5.47;;;22.30;99.90;;;;;;5007697;28;20717;-85
2022/09/13 10:41:37;;;;;;;5.82;5.22;;;22.20;99.90;;;;;;5005714;28;20207;-85
2022/09/13 10:44:05;;;;;;;5.22;4.75;;;22.00;1.00;;;;;;5007373;28;20191;-85
2022/09/13 10:46:38;;;;;;;5.40;4.80;;;22.00;99.90;;;;;;5021400;28;20203;-85
2022/09/13 10:49:04;;;;;;;6.43;5.05;;;21.90;99.90;;;;;;5007192;28;20711;-85
2022/09/13 10:51:37;;;;;;;5.88;5.38;;;21.80;99.90;;;;;;5005305;28;20183;-83
2022/09/13 10:54:19;;;;;;;5.10;4.60;;;21.80;99.90;;;;;;5007028;28;20175;-87
2022/09/13 10:56:46;;;;;;;5.30;4.70;;;21.90;99.90;;;;;;5005292;28;20286;-87
2022/09/13 10:59:28;;;;;;;3.90;3.50;;;22.10;1.00;;;;;;5006286;28;20191;-87
2022/09/13 11:02:25;;;;;;;6.95;4.35;;;22.20;99.90;;;;;;5006901;28;20178;-84
2022/09/13 11:05:12;;;;;;;7.28;4.47;;;22.00;99.90;;;;;;5021777;28;20245;-86
2022/09/13 11:08:11;;;;;;;4.70;3.95;;;21.80;1.00;;;;;;5007497;28;20171;-86
2022/09/13 11:11:00;;;;;;;4.38;3.95;;;21.70;1.00;;;;;;5024881;23;20234;-90
2022/09/13 11:13:51;;;;;;;4.22;3.78;;;21.60;1.00;;;;;;5005210;28;20180;-91
2022/09/13 11:16:35;;;;;;;4.60;4.20;;;21.90;1.00;;;;;;5005747;28;20577;-91
2022/09/13 11:19:46;;;;;;;3.88;3.58;;;22.10;1.00;;;;;;5007735;28;20188;-90
2022/09/13 11:22:38;;;;;;;6.90;4.20;;;22.30;99.90;;;;;;5015470;28;20190;-90
2022/09/13 11:25:26;;;;;;;5.55;4.22;;;22.50;99.90;;;;;;5008803;28;20628;-91
2022/09/13 11:28:04;;;;;;;4.80;3.95;;;22.40;63.10;;;;;;5010569;28;20267;-91
2022/09/13 11:31:07;;;;;;;4.53;4.03;;;22.30;99.90;;;;;;5025662;28;20191;-90
2022/09/13 11:34:11;;;;;;;5.28;4.43;;;22.10;1.00;;;;;;5008837;28;20657;-89
2022/09/13 11:37:04;;;;;;;5.13;4.10;;;21.90;1.00;;;;;;5008429;28;20329;-90
2022/09/13 11:39:44;;;;;;;5.50;4.55;;;21.80;99.90;;;;;;5008417;28;20179;-90
2022/09/13 11:42:47;;;;;;;6.57;4.40;;;21.50;99.90;;;;;;5024965;28;20557;-90
2022/09/13 11:45:27;;;;;;;6.68;4.45;;;21.40;99.90;;;;;;5009248;28;20693;-89
2022/09/13 11:47:52;;;;;;;6.55;4.20;;;21.40;99.90;;;;;;5024952;28;20191;-90
2022/09/13 11:50:52;;;;;;;5.00;4.30;;;21.30;99.90;;;;;;5009602;28;20194;-90
2022/09/13 11:53:54;;;;;;;5.25;4.10;;;21.40;99.90;;;;;;5008894;28;20187;-90
2022/09/13 11:56:26;;;;;;;6.93;4.18;;;21.40;99.90;;;;;;5007346;28;20203;-90
2022/09/13 11:59:22;;;;;;;4.63;4.22;;;21.50;99.90;;;;;;5007862;28;20183;-90
2022/09/13 12:01:56;;;;;;;4.13;3.83;;;21.50;99.90;;;;;;4996353;28;20685;-89
2022/09/13 12:04:36;;;;;;;5.90;4.15;;;21.60;99.90;;;;;;5023324;28;20196;-90
2022/09/13 12:07:09;;;;;;;4.60;4.10;;;21.60;99.90;;;;;;5009686;28;20278;-90
2022/09/13 12:09:46;;;;;;;4.72;3.95;;;21.70;99.90;;;;;;5025364;28;20195;-90
2022/09/13 12:12:13;;;;;;;3.42;3.20;;;21.90;99.90;;;;;;5013995;28;20690;-92
2022/09/13 12:14:47;;;;;;;3.95;3.60;;;22.30;99.90;;;;;;5012735;28;20219;-91
2022/09/13 12:17:29;;;;;;;4.40;4.00;;;22.30;85.70;;;;;;5009672;28;20182;-91
2022/09/13 12:19:57;;;;;;;4.00;3.60;;;22.30;99.90;;;;;;5010650;28;20563;-91
2022/09/13 12:22:26;;;;;;;4.38;3.97;;;22.50;99.90;;;;;;5010226;28;20180;-91
2022/09/13 12:24:55;;;;;;;4.15;3.65;;;22.50;99.90;;;;;;5010031;28;20257;-91
2022/09/13 12:27:39;;;;;;;4.40;3.22;;;22.50;99.90;;;;;;5009381;28;20538;-91
2022/09/13 12:30:17;;;;;;;5.43;4.05;;;22.50;99.90;;;;;;5011657;28;20199;-92
2022/09/13 12:32:45;;;;;;;4.20;3.53;;;22.30;99.90;;;;;;5025072;28;20184;-90
2022/09/13 12:35:44;;;;;;;3.88;3.55;;;22.00;99.90;;;;;;5008735;28;20199;-91
2022/09/13 12:38:24;;;;;;;5.55;3.92;;;22.00;99.90;;;;;;4997980;28;20549;-91
2022/09/13 12:41:02;;;;;;;4.40;4.00;;;21.80;1.00;;;;;;5008405;28;20194;-91
2022/09/13 12:44:01;;;;;;;4.72;3.80;;;21.50;1.00;;;;;;5008472;28;20179;-91
2022/09/13 12:46:57;;;;;;;5.32;4.82;;;21.40;1.00;;;;;;5008702;28;20712;-90
2022/09/13 12:49:52;;;;;;;4.80;4.40;;;21.30;1.00;;;;;;5024086;28;20195;-92
2022/09/13 12:52:45;;;;;;;5.38;4.78;;;21.30;1.00;;;;;;5007486;28;20226;-91
2022/09/13 12:55:38;;;;;;;4.55;4.15;;;21.10;1.00;;;;;;5007955;28;20203;-91
2022/09/13 12:58:43;;;;;;;5.38;4.88;;;21.10;1.00;;;;;;5022019;28;20210;-88
2022/09/13 13:01:29;;;;;;;5.50;5.00;;;21.00;1.00;;;;;;5005500;28;20559;-89
2022/09/13 13:04:18;;;;;;;5.85;5.32;;;21.00;1.00;;;;;;5006000;28;20233;-88
2022/09/13 13:06:52;;;;;;;5.75;5.10;;;21.30;1.00;;;;;;5007562;28;20788;-89
2022/09/13 13:09:47;;;;;;;6.55;5.47;;;21.30;1.00;;;;;;5005667;28;20190;-88
2022/09/13 13:12:31;;;;;;;7.35;5.88;;;21.40;1.00;;;;;;5005692;28;20179;-90
2022/09/13 13:14:58;;;;;;;6.28;5.30;;;21.20;1.00;;;;;;5034603;22;20719;-84
2022/09/13 13:18:19;;;;;;;6.68;6.05;;;21.30;1.00;;;;;;4984796;28;20183;-83
2022/09/13 13:20:54;;;;;;;6.78;5.60;;;21.20;1.00;;;;;;4931516;28;20185;-85
2022/09/13 13:23:34;;;;;;;7.32;6.57;;;21.20;1.00;;;;;;4994924;28;20191;-85
2022/09/13 13:26:06;;;;;;;7.35;6.57;;;21.30;1.00;;;;;;4992784;28;20275;-82
2022/09/13 13:28:44;;;;;;;7.20;6.50;;;21.60;1.00;;;;;;4990286;28;20267;-84
2022/09/13 13:31:30;;;;;;;7.07;6.40;;;21.70;1.00;;;;;;4997136;28;20973;-85
2022/09/13 13:34:22;;;;;;;6.70;6.10;;;21.80;1.00;;;;;;4993838;28;20257;-85
2022/09/13 13:36:53;;;;;;;8.43;7.63;;;22.00;1.00;;;;;;4988327;28;20220;-83
2022/09/13 13:39:22;;;;;;;7.85;7.05;;;21.80;1.00;;;;;;5003809;28;20203;-85
2022/09/13 13:42:12;;;;;;;7.72;7.13;;;21.70;1.00;;;;;;4996407;28;20589;-85
2022/09/13 13:44:41;;;;;;;7.40;6.70;;;21.50;1.00;;;;;;4992584;28;20227;-85
2022/09/13 13:47:06;;;;;;;7.40;6.80;;;21.30;1.00;;;;;;5011322;28;20187;-85
2022/09/13 13:49:33;;;;;;;6.53;6.03;;;21.40;1.00;;;;;;5005141;28;20192;-85
2022/09/13 13:52:05;;;;;;;7.53;6.82;;;21.40;1.00;;;;;;4996881;28;20207;-86
2022/09/13 13:54:50;;;;;;;8.30;7.47;;;21.50;1.00;;;;;;5014592;28;20278;-86
2022/09/13 13:57:23;;;;;;;8.45;7.75;;;21.60;1.00;;;;;;5006462;28;20186;-84
2022/09/13 13:59:53;;;;;;;7.45;6.82;;;21.60;1.00;;;;;;4999287;28;20247;-86
2022/09/13 14:02:28;;;;;;;8.35;7.60;;;21.60;1.00;;;;;;4996841;28;20618;-85
2022/09/13 14:05:18;;;;;;;8.00;7.20;;;21.70;1.00;;;;;;4996521;28;20225;-84
2022/09/13 14:08:08;;;;;;;7.45;6.85;;;21.40;1.00;;;;;;4998555;28;20168;-85
2022/09/13 14:10:37;;;;;;;8.35;7.65;;;21.30;1.00;;;;;;5013809;28;20176;-86
2022/09/13 14:13:43;;;;;;;7.70;7.00;;;21.30;1.00;;;;;;4997932;28;20203;-83
2022/09/13 14:16:44;;;;;;;7.97;7.18;;;21.30;1.00;;;;;;5016513;28;20233;-81
2022/09/13 14:19:30;;;;;;;7.75;7.05;;;21.20;1.00;;;;;;4982749;28;20200;-84
2022/09/13 14:22:17;;;;;;;7.57;6.95;;;21.10;1.00;;;;;;4999420;28;20183;-81
2022/09/13 14:24:51;;;;;;;6.93;6.32;;;21.00;1.00;;;;;;5014550;28;20212;-84
2022/09/13 14:27:28;;;;;;;7.18;6.57;;;21.00;1.00;;;;;;4998737;28;20168;-84
2022/09/13 14:29:58;;;;;;;6.80;6.20;;;21.00;1.00;;;;;;4998463;28;20191;-83
2022/09/13 14:32:26;;;;;;;5.93;5.40;;;21.00;1.00;;;;;;4996701;28;20176;-83
2022/09/13 14:35:01;;;;;;;7.03;6.38;;;21.00;1.00;;;;;;4997273;28;20212;-85
2022/09/13 14:37:29;;;;;;;7.32;6.63;;;21.20;1.00;;;;;;5006027;28;20273;-81
2022/09/13 14:40:19;;;;;;;7.35;6.75;;;21.20;1.00;;;;;;4991295;28;20184;-84
2022/09/13 14:42:46;;;;;;;7.70;6.03;;;21.40;1.00;;;;;;5014302;28;20716;-84
2022/09/13 14:45:29;;;;;;;6.47;5.88;;;21.60;1.00;;;;;;5013881;28;20597;-86
2022/09/13 14:48:14;;;;;;;7.40;6.72;;;21.70;1.00;;;;;;4998205;28;20186;-83
2022/09/13 14:50:54;;;;;;;8.50;6.88;;;21.70;1.00;;;;;;4999701;28;20818;-82
2022/09/13 14:53:23;;;;;;;8.02;7.25;;;21.70;1.00;;;;;;4996775;28;20191;-82
2022/09/13 14:55:55;;;;;;;8.82;8.05;;;21.70;1.00;;;;;;4998227;28;20215;-80
2022/09/13 14:58:25;;;;;;;8.90;8.07;;;21.80;1.00;;;;;;4996702;28;21083;-83
2022/09/13 15:00:57;;;;;;;9.88;9.07;;;21.70;1.00;;;;;;4995909;28;20592;-82
2022/09/13 15:04:15;;;;;;;9.18;8.13;;;21.80;1.00;;;;;;5002542;28;20176;-83
2022/09/13 15:06:45;;;;;;;9.80;8.93;;;21.80;1.00;;;;;;5015278;28;20219;-84
2022/09/13 15:09:11;;;;;;;10.25;9.30;;;21.80;1.00;;;;;;5000786;28;20190;-83
2022/09/13 15:11:59;;;;;;;9.32;8.55;;;21.70;1.00;;;;;;5000326;28;20179;-85
2022/09/13 15:14:39;;;;;;;8.90;8.10;;;21.70;1.00;;;;;;4999581;28;20184;-83
2022/09/13 15:17:13;;;;;;;9.20;8.30;;;21.70;1.00;;;;;;5015933;28;20279;-83
2022/09/13 15:19:42;;;;;;;8.95;8.05;;;21.70;1.00;;;;;;5001467;28;20188;-85
2022/09/13 15:22:19;;;;;;;8.15;7.38;;;21.80;1.00;;;;;;5000516;28;20200;-85
2022/09/13 15:24:48;;;;;;;8.65;7.85;;;21.80;1.00;;;;;;4999673;28;20208;-84
2022/09/13 15:27:24;;;;;;;8.55;7.85;;;21.70;1.00;;;;;;5000420;28;20187;-84
2022/09/13 15:33:17;;;;;;;7.65;6.68;;;21.70;1.00;;;;;;5001412;28;20230;-84
2022/09/13 15:35:46;;;;;;;8.20;6.88;;;21.80;1.00;;;;;;4998530;28;20208;-83
2022/09/13 15:38:37;;;;;;;6.68;5.97;;;21.70;1.00;;;;;;4999596;28;20188;-85
2022/09/13 15:41:18;;;;;;;5.45;5.03;;;21.60;1.00;;;;;;5001341;28;20199;-82
2022/09/13 15:43:47;;;;;;;5.13;4.63;;;21.30;1.00;;;;;;4998481;28;20191;-82
2022/09/13 15:46:14;;;;;;;4.90;4.50;;;21.00;1.00;;;;;;4998552;28;20220;-82
2022/09/13 15:48:51;;;;;;;5.13;4.68;;;20.90;1.00;;;;;;4996804;28;20557;-84
2022/09/13 15:51:17;;;;;;;4.80;4.35;;;20.80;1.00;;;;;;4998726;28;20191;-82
2022/09/13 15:53:44;;;;;;;4.53;4.13;;;20.40;1.00;;;;;;4997632;28;20194;-83